Terminal Aerodrome Forecast
Issued by NWS Memphis, TN

Home | Current Version | Previous Version | Text Only | Print | Product List | Glossary On
Versions: 1 2 3 4 5 6 7 8 9 10 11 12 13 14 15 16 17 18 19 20 21
664
FTUS44 KMEG 262337
TAFMKL
TAF
KMKL 262337Z 2700/2724 22006KT P6SM SCT030 BKN050
     FM270100 16004KT P6SM BKN250
     FM271300 19013G20KT P6SM VCSH BKN015 OVC150
      TEMPO 2714/2718 -SHRA
     FM271900 22011G22KT 6SM SHRA BKN025 OVC050=

USA.gov is the U.S. government's official web portal to all federal, state and local government web resources and services.